sensor_id;sensor_type;location;lat;lon;timestamp;P1;durP1;ratioP1;P2;durP2;ratioP2
70800;SDS011;59616;52.170;5.386;2023-09-19T00:00:22;9.20;;;1.60;;
70800;SDS011;59616;52.170;5.386;2023-09-19T00:02:56;10.07;;;1.42;;
70800;SDS011;59616;52.170;5.386;2023-09-19T00:05:26;9.20;;;1.63;;
70800;SDS011;59616;52.170;5.386;2023-09-19T00:07:56;9.02;;;1.50;;
70800;SDS011;59616;52.170;5.386;2023-09-19T00:10:25;7.50;;;1.50;;
70800;SDS011;59616;52.170;5.386;2023-09-19T00:12:53;6.40;;;1.40;;
70800;SDS011;59616;52.170;5.386;2023-09-19T00:15:25;7.28;;;1.55;;
70800;SDS011;59616;52.170;5.386;2023-09-19T00:17:55;7.32;;;1.13;;
70800;SDS011;59616;52.170;5.386;2023-09-19T00:20:23;9.35;;;1.33;;
70800;SDS011;59616;52.170;5.386;2023-09-19T00:22:50;10.35;;;1.70;;
70800;SDS011;59616;52.170;5.386;2023-09-19T00:25:18;6.18;;;1.45;;
70800;SDS011;59616;52.170;5.386;2023-09-19T00:27:46;6.75;;;1.50;;
70800;SDS011;59616;52.170;5.386;2023-09-19T00:30:16;6.57;;;1.30;;
70800;SDS011;59616;52.170;5.386;2023-09-19T00:32:47;7.85;;;1.55;;
70800;SDS011;59616;52.170;5.386;2023-09-19T00:35:15;8.93;;;1.70;;
70800;SDS011;59616;52.170;5.386;2023-09-19T00:37:42;6.22;;;1.40;;
70800;SDS011;59616;52.170;5.386;2023-09-19T00:40:10;7.45;;;1.30;;
70800;SDS011;59616;52.170;5.386;2023-09-19T00:42:45;5.13;;;1.40;;
70800;SDS011;59616;52.170;5.386;2023-09-19T00:45:13;9.50;;;1.58;;
70800;SDS011;59616;52.170;5.386;2023-09-19T00:47:45;7.25;;;1.38;;
70800;SDS011;59616;52.170;5.386;2023-09-19T00:50:18;8.35;;;1.48;;
70800;SDS011;59616;52.170;5.386;2023-09-19T00:52:48;6.50;;;1.33;;
70800;SDS011;59616;52.170;5.386;2023-09-19T00:55:16;9.60;;;1.55;;
70800;SDS011;59616;52.170;5.386;2023-09-19T00:57:46;5.50;;;1.30;;
70800;SDS011;59616;52.170;5.386;2023-09-19T01:00:16;7.43;;;1.50;;
70800;SDS011;59616;52.170;5.386;2023-09-19T01:02:46;6.95;;;1.55;;
70800;SDS011;59616;52.170;5.386;2023-09-19T01:05:14;9.23;;;1.60;;
70800;SDS011;59616;52.170;5.386;2023-09-19T01:07:42;12.93;;;1.70;;
70800;SDS011;59616;52.170;5.386;2023-09-19T01:10:11;8.82;;;1.60;;
70800;SDS011;59616;52.170;5.386;2023-09-19T01:15:12;8.70;;;1.65;;
70800;SDS011;59616;52.170;5.386;2023-09-19T01:17:46;6.60;;;1.63;;
70800;SDS011;59616;52.170;5.386;2023-09-19T01:20:19;8.57;;;1.63;;
70800;SDS011;59616;52.170;5.386;2023-09-19T01:31:08;5.80;;;1.60;;
70800;SDS011;59616;52.170;5.386;2023-09-19T01:36:27;8.88;;;1.67;;
70800;SDS011;59616;52.170;5.386;2023-09-19T01:38:55;7.10;;;1.50;;
70800;SDS011;59616;52.170;5.386;2023-09-19T01:41:30;8.50;;;1.85;;
70800;SDS011;59616;52.170;5.386;2023-09-19T01:43:59;9.23;;;1.77;;
70800;SDS011;59616;52.170;5.386;2023-09-19T01:46:30;9.95;;;1.70;;
70800;SDS011;59616;52.170;5.386;2023-09-19T01:49:13;8.82;;;1.58;;
70800;SDS011;59616;52.170;5.386;2023-09-19T01:51:46;6.57;;;1.60;;
70800;SDS011;59616;52.170;5.386;2023-09-19T01:54:16;5.85;;;1.52;;
70800;SDS011;59616;52.170;5.386;2023-09-19T01:56:48;8.82;;;1.73;;
70800;SDS011;59616;52.170;5.386;2023-09-19T01:59:17;10.02;;;1.95;;
70800;SDS011;59616;52.170;5.386;2023-09-19T02:01:48;8.30;;;1.90;;
70800;SDS011;59616;52.170;5.386;2023-09-19T02:04:17;9.93;;;1.70;;
70800;SDS011;59616;52.170;5.386;2023-09-19T02:06:44;8.90;;;1.85;;
70800;SDS011;59616;52.170;5.386;2023-09-19T02:09:14;9.77;;;1.77;;
70800;SDS011;59616;52.170;5.386;2023-09-19T02:11:41;5.45;;;1.63;;
70800;SDS011;59616;52.170;5.386;2023-09-19T02:14:08;9.23;;;2.03;;
70800;SDS011;59616;52.170;5.386;2023-09-19T02:16:35;8.40;;;1.67;;
70800;SDS011;59616;52.170;5.386;2023-09-19T02:19:03;10.65;;;1.65;;
70800;SDS011;59616;52.170;5.386;2023-09-19T02:21:32;7.68;;;1.83;;
70800;SDS011;59616;52.170;5.386;2023-09-19T02:23:59;9.05;;;1.95;;
70800;SDS011;59616;52.170;5.386;2023-09-19T02:26:27;11.15;;;1.90;;
70800;SDS011;59616;52.170;5.386;2023-09-19T02:28:54;7.53;;;1.85;;
70800;SDS011;59616;52.170;5.386;2023-09-19T02:31:21;5.28;;;1.63;;
70800;SDS011;59616;52.170;5.386;2023-09-19T02:33:49;9.20;;;1.80;;
70800;SDS011;59616;52.170;5.386;2023-09-19T02:36:16;9.27;;;2.10;;
70800;SDS011;59616;52.170;5.386;2023-09-19T02:38:44;9.10;;;1.55;;
70800;SDS011;59616;52.170;5.386;2023-09-19T02:41:11;14.50;;;2.35;;
70800;SDS011;59616;52.170;5.386;2023-09-19T02:43:38;8.82;;;1.73;;
70800;SDS011;59616;52.170;5.386;2023-09-19T02:46:06;10.90;;;2.30;;
70800;SDS011;59616;52.170;5.386;2023-09-19T02:48:33;7.10;;;1.42;;
70800;SDS011;59616;52.170;5.386;2023-09-19T02:51:02;13.60;;;1.98;;
70800;SDS011;59616;52.170;5.386;2023-09-19T02:53:31;8.63;;;1.52;;
70800;SDS011;59616;52.170;5.386;2023-09-19T02:55:58;10.45;;;1.65;;
70800;SDS011;59616;52.170;5.386;2023-09-19T02:58:27;10.50;;;1.73;;
70800;SDS011;59616;52.170;5.386;2023-09-19T03:00:56;11.38;;;2.00;;
70800;SDS011;59616;52.170;5.386;2023-09-19T03:03:24;9.68;;;1.90;;
70800;SDS011;59616;52.170;5.386;2023-09-19T03:05:54;9.68;;;1.83;;
70800;SDS011;59616;52.170;5.386;2023-09-19T03:08:22;7.03;;;1.70;;
70800;SDS011;59616;52.170;5.386;2023-09-19T03:10:49;12.90;;;2.40;;
70800;SDS011;59616;52.170;5.386;2023-09-19T03:13:17;10.38;;;1.83;;
70800;SDS011;59616;52.170;5.386;2023-09-19T03:15:45;11.93;;;2.10;;
70800;SDS011;59616;52.170;5.386;2023-09-19T03:18:20;7.75;;;1.77;;
70800;SDS011;59616;52.170;5.386;2023-09-19T03:20:52;10.02;;;1.80;;
70800;SDS011;59616;52.170;5.386;2023-09-19T03:23:22;12.60;;;1.90;;
70800;SDS011;59616;52.170;5.386;2023-09-19T03:25:49;8.23;;;1.63;;
70800;SDS011;59616;52.170;5.386;2023-09-19T03:28:18;9.85;;;1.83;;
70800;SDS011;59616;52.170;5.386;2023-09-19T03:30:58;11.48;;;1.60;;
70800;SDS011;59616;52.170;5.386;2023-09-19T03:33:26;10.57;;;1.50;;
70800;SDS011;59616;52.170;5.386;2023-09-19T03:35:54;13.00;;;1.67;;
70800;SDS011;59616;52.170;5.386;2023-09-19T03:38:25;11.80;;;1.65;;
70800;SDS011;59616;52.170;5.386;2023-09-19T03:40:52;9.38;;;1.98;;
70800;SDS011;59616;52.170;5.386;2023-09-19T03:43:19;12.07;;;1.70;;
70800;SDS011;59616;52.170;5.386;2023-09-19T03:45:47;9.60;;;1.65;;
70800;SDS011;59616;52.170;5.386;2023-09-19T03:48:15;8.25;;;1.60;;
70800;SDS011;59616;52.170;5.386;2023-09-19T03:50:42;13.57;;;1.92;;
70800;SDS011;59616;52.170;5.386;2023-09-19T03:53:13;16.70;;;1.73;;
70800;SDS011;59616;52.170;5.386;2023-09-19T03:55:40;17.02;;;2.17;;
70800;SDS011;59616;52.170;5.386;2023-09-19T03:58:08;14.30;;;1.92;;
70800;SDS011;59616;52.170;5.386;2023-09-19T04:00:37;10.40;;;1.70;;
70800;SDS011;59616;52.170;5.386;2023-09-19T04:03:05;9.63;;;1.65;;
70800;SDS011;59616;52.170;5.386;2023-09-19T04:05:33;14.00;;;1.90;;
70800;SDS011;59616;52.170;5.386;2023-09-19T04:08:00;9.85;;;1.60;;
70800;SDS011;59616;52.170;5.386;2023-09-19T04:10:28;12.77;;;1.95;;
70800;SDS011;59616;52.170;5.386;2023-09-19T04:12:56;10.68;;;1.60;;
70800;SDS011;59616;52.170;5.386;2023-09-19T04:15:23;11.90;;;1.70;;
70800;SDS011;59616;52.170;5.386;2023-09-19T04:17:53;9.07;;;1.60;;
70800;SDS011;59616;52.170;5.386;2023-09-19T04:20:21;12.27;;;1.75;;
70800;SDS011;59616;52.170;5.386;2023-09-19T04:22:50;10.73;;;1.88;;
70800;SDS011;59616;52.170;5.386;2023-09-19T04:25:17;12.82;;;1.90;;
70800;SDS011;59616;52.170;5.386;2023-09-19T04:27:45;9.15;;;1.60;;
70800;SDS011;59616;52.170;5.386;2023-09-19T04:30:12;10.75;;;1.55;;
70800;SDS011;59616;52.170;5.386;2023-09-19T04:32:41;11.02;;;1.70;;
70800;SDS011;59616;52.170;5.386;2023-09-19T04:35:09;11.30;;;1.70;;
70800;SDS011;59616;52.170;5.386;2023-09-19T04:37:37;11.32;;;1.90;;
70800;SDS011;59616;52.170;5.386;2023-09-19T04:40:07;11.00;;;1.90;;
70800;SDS011;59616;52.170;5.386;2023-09-19T04:42:45;14.02;;;1.85;;
70800;SDS011;59616;52.170;5.386;2023-09-19T04:45:13;13.23;;;1.75;;
70800;SDS011;59616;52.170;5.386;2023-09-19T04:47:41;11.55;;;1.80;;
70800;SDS011;59616;52.170;5.386;2023-09-19T04:50:10;9.73;;;1.50;;
70800;SDS011;59616;52.170;5.386;2023-09-19T04:52:40;10.10;;;1.50;;
70800;SDS011;59616;52.170;5.386;2023-09-19T04:55:12;10.70;;;1.60;;
70800;SDS011;59616;52.170;5.386;2023-09-19T04:57:47;11.60;;;1.73;;
70800;SDS011;59616;52.170;5.386;2023-09-19T05:00:18;8.48;;;1.85;;
70800;SDS011;59616;52.170;5.386;2023-09-19T05:02:52;8.35;;;1.88;;
70800;SDS011;59616;52.170;5.386;2023-09-19T05:05:21;8.18;;;1.55;;
70800;SDS011;59616;52.170;5.386;2023-09-19T05:07:50;9.38;;;1.90;;
70800;SDS011;59616;52.170;5.386;2023-09-19T05:10:17;8.13;;;1.50;;
70800;SDS011;59616;52.170;5.386;2023-09-19T05:12:45;9.30;;;1.63;;
70800;SDS011;59616;52.170;5.386;2023-09-19T05:15:14;9.98;;;2.25;;
70800;SDS011;59616;52.170;5.386;2023-09-19T05:17:50;8.70;;;1.80;;
70800;SDS011;59616;52.170;5.386;2023-09-19T05:20:23;8.15;;;1.65;;
70800;SDS011;59616;52.170;5.386;2023-09-19T05:23:06;10.38;;;2.08;;
70800;SDS011;59616;52.170;5.386;2023-09-19T05:25:35;11.15;;;2.10;;
70800;SDS011;59616;52.170;5.386;2023-09-19T05:28:04;9.85;;;2.00;;
70800;SDS011;59616;52.170;5.386;2023-09-19T05:30:32;13.52;;;2.00;;
70800;SDS011;59616;52.170;5.386;2023-09-19T05:32:59;9.02;;;1.70;;
70800;SDS011;59616;52.170;5.386;2023-09-19T05:35:28;9.55;;;1.70;;
70800;SDS011;59616;52.170;5.386;2023-09-19T05:37:55;7.82;;;1.60;;
70800;SDS011;59616;52.170;5.386;2023-09-19T05:40:24;8.35;;;2.00;;
70800;SDS011;59616;52.170;5.386;2023-09-19T05:42:51;16.35;;;2.60;;
70800;SDS011;59616;52.170;5.386;2023-09-19T05:45:19;8.07;;;2.17;;
70800;SDS011;59616;52.170;5.386;2023-09-19T05:47:49;15.90;;;1.92;;
70800;SDS011;59616;52.170;5.386;2023-09-19T05:50:17;11.02;;;1.77;;
70800;SDS011;59616;52.170;5.386;2023-09-19T05:52:51;9.32;;;1.48;;
70800;SDS011;59616;52.170;5.386;2023-09-19T05:55:19;11.43;;;1.75;;
70800;SDS011;59616;52.170;5.386;2023-09-19T05:57:50;8.15;;;1.38;;
70800;SDS011;59616;52.170;5.386;2023-09-19T06:00:18;12.45;;;1.80;;
70800;SDS011;59616;52.170;5.386;2023-09-19T06:02:49;11.63;;;1.70;;
70800;SDS011;59616;52.170;5.386;2023-09-19T06:05:17;13.70;;;1.65;;
70800;SDS011;59616;52.170;5.386;2023-09-19T06:07:44;8.45;;;1.70;;
70800;SDS011;59616;52.170;5.386;2023-09-19T06:10:11;11.73;;;1.80;;
70800;SDS011;59616;52.170;5.386;2023-09-19T06:12:41;15.55;;;1.85;;
70800;SDS011;59616;52.170;5.386;2023-09-19T06:15:12;16.95;;;2.25;;
70800;SDS011;59616;52.170;5.386;2023-09-19T06:17:49;11.77;;;2.28;;
70800;SDS011;59616;52.170;5.386;2023-09-19T06:20:17;9.30;;;1.63;;
70800;SDS011;59616;52.170;5.386;2023-09-19T06:22:46;10.88;;;1.85;;
70800;SDS011;59616;52.170;5.386;2023-09-19T06:25:13;10.05;;;1.80;;
70800;SDS011;59616;52.170;5.386;2023-09-19T06:27:49;11.75;;;1.90;;
70800;SDS011;59616;52.170;5.386;2023-09-19T06:30:19;8.05;;;1.55;;
70800;SDS011;59616;52.170;5.386;2023-09-19T06:32:46;10.07;;;2.17;;
70800;SDS011;59616;52.170;5.386;2023-09-19T06:35:15;11.77;;;2.08;;
70800;SDS011;59616;52.170;5.386;2023-09-19T06:37:42;9.05;;;1.70;;
70800;SDS011;59616;52.170;5.386;2023-09-19T06:40:11;8.30;;;1.70;;
70800;SDS011;59616;52.170;5.386;2023-09-19T06:42:45;12.65;;;2.00;;
70800;SDS011;59616;52.170;5.386;2023-09-19T06:45:16;7.32;;;1.58;;
70800;SDS011;59616;52.170;5.386;2023-09-19T06:47:49;11.15;;;1.73;;
70800;SDS011;59616;52.170;5.386;2023-09-19T06:50:17;9.90;;;2.00;;
70800;SDS011;59616;52.170;5.386;2023-09-19T06:52:46;11.30;;;2.10;;
70800;SDS011;59616;52.170;5.386;2023-09-19T06:55:18;10.80;;;2.30;;
70800;SDS011;59616;52.170;5.386;2023-09-19T06:57:46;9.13;;;1.77;;
70800;SDS011;59616;52.170;5.386;2023-09-19T07:00:14;10.80;;;1.75;;
70800;SDS011;59616;52.170;5.386;2023-09-19T07:02:42;12.73;;;2.05;;
70800;SDS011;59616;52.170;5.386;2023-09-19T07:05:09;11.60;;;2.00;;
70800;SDS011;59616;52.170;5.386;2023-09-19T07:07:37;11.45;;;1.90;;
70800;SDS011;59616;52.170;5.386;2023-09-19T07:10:04;8.70;;;2.00;;
70800;SDS011;59616;52.170;5.386;2023-09-19T07:12:32;10.38;;;1.70;;
70800;SDS011;59616;52.170;5.386;2023-09-19T07:14:59;10.73;;;1.80;;
70800;SDS011;59616;52.170;5.386;2023-09-19T07:17:27;12.27;;;2.00;;
70800;SDS011;59616;52.170;5.386;2023-09-19T07:19:56;13.63;;;2.10;;
70800;SDS011;59616;52.170;5.386;2023-09-19T07:22:28;13.32;;;2.00;;
70800;SDS011;59616;52.170;5.386;2023-09-19T07:24:56;12.75;;;1.90;;
70800;SDS011;59616;52.170;5.386;2023-09-19T07:27:23;11.70;;;2.20;;
70800;SDS011;59616;52.170;5.386;2023-09-19T07:29:51;9.50;;;1.98;;
70800;SDS011;59616;52.170;5.386;2023-09-19T07:32:20;14.15;;;2.00;;
70800;SDS011;59616;52.170;5.386;2023-09-19T07:34:47;11.48;;;2.22;;
70800;SDS011;59616;52.170;5.386;2023-09-19T07:37:15;11.80;;;1.50;;
70800;SDS011;59616;52.170;5.386;2023-09-19T07:39:42;10.60;;;1.70;;
70800;SDS011;59616;52.170;5.386;2023-09-19T07:42:11;16.67;;;2.20;;
70800;SDS011;59616;52.170;5.386;2023-09-19T07:44:44;13.05;;;2.10;;
70800;SDS011;59616;52.170;5.386;2023-09-19T07:47:14;16.52;;;1.90;;
70800;SDS011;59616;52.170;5.386;2023-09-19T07:49:41;13.25;;;2.13;;
70800;SDS011;59616;52.170;5.386;2023-09-19T07:52:09;10.70;;;1.50;;
70800;SDS011;59616;52.170;5.386;2023-09-19T07:54:36;12.23;;;2.20;;
70800;SDS011;59616;52.170;5.386;2023-09-19T07:57:05;10.32;;;2.00;;
70800;SDS011;59616;52.170;5.386;2023-09-19T07:59:32;8.63;;;2.03;;
70800;SDS011;59616;52.170;5.386;2023-09-19T08:01:59;16.92;;;2.38;;
70800;SDS011;59616;52.170;5.386;2023-09-19T08:04:27;8.40;;;1.90;;
70800;SDS011;59616;52.170;5.386;2023-09-19T08:06:54;9.07;;;1.95;;
70800;SDS011;59616;52.170;5.386;2023-09-19T08:09:22;10.85;;;1.90;;
70800;SDS011;59616;52.170;5.386;2023-09-19T08:11:51;17.45;;;2.50;;
70800;SDS011;59616;52.170;5.386;2023-09-19T08:14:18;11.27;;;1.83;;
70800;SDS011;59616;52.170;5.386;2023-09-19T08:16:45;11.82;;;1.92;;
70800;SDS011;59616;52.170;5.386;2023-09-19T08:19:13;13.27;;;2.00;;
70800;SDS011;59616;52.170;5.386;2023-09-19T08:21:41;12.65;;;2.20;;
70800;SDS011;59616;52.170;5.386;2023-09-19T08:24:12;12.18;;;1.88;;
70800;SDS011;59616;52.170;5.386;2023-09-19T08:26:40;14.75;;;2.33;;
70800;SDS011;59616;52.170;5.386;2023-09-19T08:29:08;14.60;;;2.67;;
70800;SDS011;59616;52.170;5.386;2023-09-19T08:31:38;11.85;;;2.20;;
70800;SDS011;59616;52.170;5.386;2023-09-19T08:34:05;12.38;;;2.00;;
70800;SDS011;59616;52.170;5.386;2023-09-19T08:36:32;15.18;;;2.10;;
70800;SDS011;59616;52.170;5.386;2023-09-19T08:39:00;13.10;;;2.20;;
70800;SDS011;59616;52.170;5.386;2023-09-19T08:41:27;12.60;;;2.03;;
70800;SDS011;59616;52.170;5.386;2023-09-19T08:43:58;12.05;;;2.03;;
70800;SDS011;59616;52.170;5.386;2023-09-19T08:46:28;14.15;;;2.13;;
70800;SDS011;59616;52.170;5.386;2023-09-19T08:49:02;14.70;;;2.20;;
70800;SDS011;59616;52.170;5.386;2023-09-19T08:54:08;13.13;;;2.58;;
70800;SDS011;59616;52.170;5.386;2023-09-19T08:56:39;16.05;;;2.50;;
70800;SDS011;59616;52.170;5.386;2023-09-19T08:59:08;11.55;;;1.77;;
70800;SDS011;59616;52.170;5.386;2023-09-19T09:01:37;11.50;;;1.92;;
70800;SDS011;59616;52.170;5.386;2023-09-19T09:04:06;13.68;;;2.05;;
70800;SDS011;59616;52.170;5.386;2023-09-19T09:06:35;14.98;;;2.35;;
70800;SDS011;59616;52.170;5.386;2023-09-19T09:09:02;10.05;;;1.75;;
70800;SDS011;59616;52.170;5.386;2023-09-19T09:11:32;11.98;;;1.80;;
70800;SDS011;59616;52.170;5.386;2023-09-19T09:14:00;11.85;;;1.88;;
70800;SDS011;59616;52.170;5.386;2023-09-19T09:16:27;11.65;;;2.17;;
70800;SDS011;59616;52.170;5.386;2023-09-19T09:18:57;15.50;;;1.85;;
70800;SDS011;59616;52.170;5.386;2023-09-19T09:21:24;11.57;;;2.17;;
70800;SDS011;59616;52.170;5.386;2023-09-19T09:23:52;13.00;;;1.92;;
70800;SDS011;59616;52.170;5.386;2023-09-19T09:26:54;13.35;;;1.80;;
70800;SDS011;59616;52.170;5.386;2023-09-19T09:29:16;12.15;;;1.55;;
70800;SDS011;59616;52.170;5.386;2023-09-19T09:31:46;10.48;;;1.73;;
70800;SDS011;59616;52.170;5.386;2023-09-19T09:34:14;13.85;;;1.67;;
70800;SDS011;59616;52.170;5.386;2023-09-19T09:36:43;10.73;;;1.60;;
70800;SDS011;59616;52.170;5.386;2023-09-19T09:39:15;9.93;;;1.83;;
70800;SDS011;59616;52.170;5.386;2023-09-19T09:41:58;13.07;;;1.80;;
70800;SDS011;59616;52.170;5.386;2023-09-19T09:44:25;13.65;;;2.10;;
70800;SDS011;59616;52.170;5.386;2023-09-19T09:46:58;12.45;;;1.65;;
70800;SDS011;59616;52.170;5.386;2023-09-19T09:49:47;13.80;;;1.92;;
70800;SDS011;59616;52.170;5.386;2023-09-19T09:52:21;11.43;;;1.90;;
70800;SDS011;59616;52.170;5.386;2023-09-19T09:55:00;14.10;;;2.13;;
70800;SDS011;59616;52.170;5.386;2023-09-19T09:57:32;8.18;;;1.90;;
70800;SDS011;59616;52.170;5.386;2023-09-19T10:00:00;11.93;;;2.00;;
70800;SDS011;59616;52.170;5.386;2023-09-19T10:02:39;8.50;;;1.92;;
70800;SDS011;59616;52.170;5.386;2023-09-19T10:07:54;16.35;;;2.20;;
70800;SDS011;59616;52.170;5.386;2023-09-19T10:10:35;12.18;;;2.50;;
70800;SDS011;59616;52.170;5.386;2023-09-19T10:13:06;14.13;;;2.15;;
70800;SDS011;59616;52.170;5.386;2023-09-19T10:15:34;19.55;;;2.33;;
70800;SDS011;59616;52.170;5.386;2023-09-19T10:18:05;12.27;;;2.00;;
70800;SDS011;59616;52.170;5.386;2023-09-19T10:20:35;9.95;;;1.80;;
70800;SDS011;59616;52.170;5.386;2023-09-19T10:23:08;11.02;;;2.03;;
70800;SDS011;59616;52.170;5.386;2023-09-19T10:25:40;10.57;;;2.22;;
70800;SDS011;59616;52.170;5.386;2023-09-19T10:28:11;9.52;;;1.70;;
70800;SDS011;59616;52.170;5.386;2023-09-19T10:30:47;13.82;;;1.90;;
70800;SDS011;59616;52.170;5.386;2023-09-19T10:33:18;11.25;;;2.00;;
70800;SDS011;59616;52.170;5.386;2023-09-19T10:35:48;7.55;;;1.58;;
70800;SDS011;59616;52.170;5.386;2023-09-19T10:38:19;9.50;;;1.70;;
70800;SDS011;59616;52.170;5.386;2023-09-19T10:40:51;11.77;;;1.92;;
70800;SDS011;59616;52.170;5.386;2023-09-19T10:43:20;14.27;;;1.92;;
70800;SDS011;59616;52.170;5.386;2023-09-19T10:45:48;8.07;;;1.52;;
70800;SDS011;59616;52.170;5.386;2023-09-19T10:48:16;9.25;;;1.50;;
70800;SDS011;59616;52.170;5.386;2023-09-19T10:51:02;11.43;;;1.50;;
70800;SDS011;59616;52.170;5.386;2023-09-19T10:53:41;13.32;;;1.60;;
70800;SDS011;59616;52.170;5.386;2023-09-19T10:56:10;6.90;;;1.55;;
70800;SDS011;59616;52.170;5.386;2023-09-19T10:58:43;10.70;;;1.80;;
70800;SDS011;59616;52.170;5.386;2023-09-19T11:01:11;9.40;;;2.00;;
70800;SDS011;59616;52.170;5.386;2023-09-19T11:03:41;8.60;;;1.65;;
70800;SDS011;59616;52.170;5.386;2023-09-19T11:06:12;12.18;;;1.90;;
70800;SDS011;59616;52.170;5.386;2023-09-19T11:08:59;9.65;;;1.83;;
70800;SDS011;59616;52.170;5.386;2023-09-19T11:14:14;8.20;;;1.50;;
70800;SDS011;59616;52.170;5.386;2023-09-19T11:17:29;9.88;;;2.03;;
70800;SDS011;59616;52.170;5.386;2023-09-19T11:23:17;9.32;;;1.60;;
70800;SDS011;59616;52.170;5.386;2023-09-19T11:25:44;12.13;;;1.88;;
70800;SDS011;59616;52.170;5.386;2023-09-19T11:30:51;9.70;;;1.70;;
70800;SDS011;59616;52.170;5.386;2023-09-19T11:33:27;8.93;;;1.60;;
70800;SDS011;59616;52.170;5.386;2023-09-19T11:46:32;12.98;;;1.67;;
70800;SDS011;59616;52.170;5.386;2023-09-19T11:49:07;8.32;;;1.60;;
70800;SDS011;59616;52.170;5.386;2023-09-19T11:51:42;12.57;;;1.77;;
70800;SDS011;59616;52.170;5.386;2023-09-19T11:54:11;9.13;;;1.50;;
70800;SDS011;59616;52.170;5.386;2023-09-19T11:56:45;5.25;;;1.35;;
70800;SDS011;59616;52.170;5.386;2023-09-19T11:59:22;4.63;;;1.10;;
70800;SDS011;59616;52.170;5.386;2023-09-19T12:01:56;6.93;;;1.40;;
70800;SDS011;59616;52.170;5.386;2023-09-19T12:04:43;6.75;;;1.38;;
70800;SDS011;59616;52.170;5.386;2023-09-19T12:07:12;7.10;;;1.40;;
70800;SDS011;59616;52.170;5.386;2023-09-19T12:09:44;9.50;;;1.92;;
70800;SDS011;59616;52.170;5.386;2023-09-19T12:12:23;8.90;;;1.20;;
70800;SDS011;59616;52.170;5.386;2023-09-19T12:14:54;8.75;;;1.45;;
70800;SDS011;59616;52.170;5.386;2023-09-19T12:17:46;9.82;;;1.42;;
70800;SDS011;59616;52.170;5.386;2023-09-19T12:20:14;4.45;;;1.00;;
70800;SDS011;59616;52.170;5.386;2023-09-19T12:22:43;9.50;;;1.33;;
70800;SDS011;59616;52.170;5.386;2023-09-19T12:25:12;5.82;;;1.15;;
70800;SDS011;59616;52.170;5.386;2023-09-19T12:27:42;5.18;;;1.10;;
70800;SDS011;59616;52.170;5.386;2023-09-19T12:30:10;6.88;;;1.48;;
70800;SDS011;59616;52.170;5.386;2023-09-19T12:32:53;8.13;;;1.20;;
70800;SDS011;59616;52.170;5.386;2023-09-19T12:35:28;7.32;;;1.25;;
70800;SDS011;59616;52.170;5.386;2023-09-19T12:37:57;4.60;;;0.93;;
70800;SDS011;59616;52.170;5.386;2023-09-19T12:40:24;5.70;;;1.10;;
70800;SDS011;59616;52.170;5.386;2023-09-19T12:42:56;7.45;;;1.15;;
70800;SDS011;59616;52.170;5.386;2023-09-19T12:45:32;8.18;;;1.15;;
70800;SDS011;59616;52.170;5.386;2023-09-19T12:48:24;8.93;;;1.85;;
70800;SDS011;59616;52.170;5.386;2023-09-19T12:51:05;5.63;;;1.17;;
70800;SDS011;59616;52.170;5.386;2023-09-19T12:53:40;5.95;;;1.30;;
70800;SDS011;59616;52.170;5.386;2023-09-19T12:56:12;4.63;;;1.10;;
70800;SDS011;59616;52.170;5.386;2023-09-19T12:58:50;7.65;;;1.25;;
70800;SDS011;59616;52.170;5.386;2023-09-19T13:01:20;7.40;;;1.52;;
70800;SDS011;59616;52.170;5.386;2023-09-19T13:04:13;5.40;;;1.05;;
70800;SDS011;59616;52.170;5.386;2023-09-19T13:06:52;4.82;;;0.98;;
70800;SDS011;59616;52.170;5.386;2023-09-19T13:09:21;5.78;;;1.00;;
70800;SDS011;59616;52.170;5.386;2023-09-19T13:11:54;8.70;;;1.25;;
70800;SDS011;59616;52.170;5.386;2023-09-19T13:19:46;5.25;;;1.05;;
70800;SDS011;59616;52.170;5.386;2023-09-19T13:25:15;7.78;;;1.70;;
70800;SDS011;59616;52.170;5.386;2023-09-19T13:27:49;6.70;;;1.15;;
70800;SDS011;59616;52.170;5.386;2023-09-19T13:30:18;5.28;;;1.20;;
70800;SDS011;59616;52.170;5.386;2023-09-19T13:32:45;2.88;;;0.90;;
70800;SDS011;59616;52.170;5.386;2023-09-19T13:35:14;5.68;;;1.05;;
70800;SDS011;59616;52.170;5.386;2023-09-19T13:37:42;4.53;;;1.08;;
70800;SDS011;59616;52.170;5.386;2023-09-19T13:40:13;5.70;;;1.20;;
70800;SDS011;59616;52.170;5.386;2023-09-19T13:42:40;7.22;;;1.00;;
70800;SDS011;59616;52.170;5.386;2023-09-19T13:45:08;4.18;;;0.95;;
70800;SDS011;59616;52.170;5.386;2023-09-19T13:47:39;6.55;;;1.20;;
70800;SDS011;59616;52.170;5.386;2023-09-19T13:50:07;4.72;;;0.93;;
70800;SDS011;59616;52.170;5.386;2023-09-19T13:52:35;6.57;;;1.20;;
70800;SDS011;59616;52.170;5.386;2023-09-19T13:55:04;6.32;;;1.00;;
70800;SDS011;59616;52.170;5.386;2023-09-19T13:57:33;4.70;;;0.77;;
70800;SDS011;59616;52.170;5.386;2023-09-19T14:00:00;5.20;;;1.13;;
70800;SDS011;59616;52.170;5.386;2023-09-19T14:02:37;5.25;;;1.17;;
70800;SDS011;59616;52.170;5.386;2023-09-19T14:05:06;7.57;;;1.50;;
70800;SDS011;59616;52.170;5.386;2023-09-19T14:07:33;3.50;;;1.13;;
70800;SDS011;59616;52.170;5.386;2023-09-19T14:10:00;3.47;;;0.80;;
70800;SDS011;59616;52.170;5.386;2023-09-19T14:12:28;3.80;;;0.82;;
70800;SDS011;59616;52.170;5.386;2023-09-19T14:14:56;4.72;;;1.10;;
70800;SDS011;59616;52.170;5.386;2023-09-19T14:17:24;5.38;;;1.13;;
70800;SDS011;59616;52.170;5.386;2023-09-19T14:19:52;4.75;;;1.10;;
70800;SDS011;59616;52.170;5.386;2023-09-19T14:22:19;3.30;;;1.10;;
70800;SDS011;59616;52.170;5.386;2023-09-19T14:24:47;5.72;;;1.10;;
70800;SDS011;59616;52.170;5.386;2023-09-19T14:27:14;3.58;;;1.13;;
70800;SDS011;59616;52.170;5.386;2023-09-19T14:29:41;8.27;;;1.40;;
70800;SDS011;59616;52.170;5.386;2023-09-19T14:32:09;5.10;;;1.05;;
70800;SDS011;59616;52.170;5.386;2023-09-19T14:34:37;9.07;;;1.42;;
70800;SDS011;59616;52.170;5.386;2023-09-19T14:37:08;7.40;;;1.60;;
70800;SDS011;59616;52.170;5.386;2023-09-19T14:39:37;5.95;;;1.25;;
70800;SDS011;59616;52.170;5.386;2023-09-19T14:42:06;5.35;;;1.38;;
70800;SDS011;59616;52.170;5.386;2023-09-19T14:44:36;6.90;;;1.48;;
70800;SDS011;59616;52.170;5.386;2023-09-19T14:47:04;10.15;;;1.48;;
70800;SDS011;59616;52.170;5.386;2023-09-19T14:49:35;5.53;;;1.27;;
70800;SDS011;59616;52.170;5.386;2023-09-19T14:52:09;4.43;;;1.38;;
70800;SDS011;59616;52.170;5.386;2023-09-19T14:54:36;3.70;;;1.23;;
70800;SDS011;59616;52.170;5.386;2023-09-19T14:57:04;9.82;;;1.80;;
70800;SDS011;59616;52.170;5.386;2023-09-19T14:59:31;10.73;;;2.33;;
70800;SDS011;59616;52.170;5.386;2023-09-19T15:01:59;8.13;;;1.40;;
70800;SDS011;59616;52.170;5.386;2023-09-19T15:04:27;7.40;;;1.60;;
70800;SDS011;59616;52.170;5.386;2023-09-19T15:06:54;7.57;;;1.73;;
70800;SDS011;59616;52.170;5.386;2023-09-19T15:09:22;6.93;;;1.52;;
70800;SDS011;59616;52.170;5.386;2023-09-19T15:11:52;7.20;;;1.50;;
70800;SDS011;59616;52.170;5.386;2023-09-19T15:14:20;6.03;;;1.60;;
70800;SDS011;59616;52.170;5.386;2023-09-19T15:16:48;7.78;;;1.55;;
70800;SDS011;59616;52.170;5.386;2023-09-19T15:19:16;8.55;;;1.65;;
70800;SDS011;59616;52.170;5.386;2023-09-19T15:21:43;9.25;;;1.80;;
70800;SDS011;59616;52.170;5.386;2023-09-19T15:24:11;7.32;;;1.40;;
70800;SDS011;59616;52.170;5.386;2023-09-19T15:26:38;8.73;;;1.67;;
70800;SDS011;59616;52.170;5.386;2023-09-19T15:29:06;7.93;;;1.63;;
70800;SDS011;59616;52.170;5.386;2023-09-19T15:31:33;5.88;;;1.73;;
70800;SDS011;59616;52.170;5.386;2023-09-19T15:34:03;8.15;;;1.60;;
70800;SDS011;59616;52.170;5.386;2023-09-19T15:36:31;11.25;;;1.77;;
70800;SDS011;59616;52.170;5.386;2023-09-19T15:41:33;5.70;;;1.50;;
70800;SDS011;59616;52.170;5.386;2023-09-19T15:44:02;6.22;;;1.63;;
70800;SDS011;59616;52.170;5.386;2023-09-19T15:46:30;5.82;;;1.38;;
70800;SDS011;59616;52.170;5.386;2023-09-19T15:49:02;7.28;;;1.50;;